createdAt,value
2023-03-23T15:57:57.368Z,100406.25
2023-03-23T16:00:28.094Z,100402.97
2023-03-23T16:03:02.727Z,100406.00
2023-03-23T16:05:30.754Z,100402.69
2023-03-23T16:07:59.085Z,100407.19
2023-03-23T16:10:28.163Z,100409.16
2023-03-23T16:12:55.966Z,100405.81
2023-03-23T16:15:23.699Z,100403.47
2023-03-23T16:17:51.379Z,100406.19
2023-03-23T16:20:21.703Z,100402.13
2023-03-23T16:22:50.887Z,100412.03
2023-03-23T16:25:19.394Z,100415.63
2023-03-23T16:27:52.332Z,100406.31
2023-03-23T16:30:31.303Z,100417.25
2023-03-23T16:32:58.968Z,100416.28
2023-03-23T16:35:26.718Z,100342.31
2023-03-23T16:38:08.335Z,100403.41
2023-03-23T16:40:37.995Z,100417.47
2023-03-23T16:43:08.451Z,100420.34
2023-03-23T16:45:42.403Z,100405.75
2023-03-23T16:48:13.221Z,100422.44
2023-03-23T16:50:42.248Z,100419.59
2023-03-23T16:53:10.601Z,100376.41
2023-03-23T16:55:39.378Z,100412.88
2023-03-23T17:00:38.806Z,100420.34
2023-03-23T17:03:07.119Z,100391.41
2023-03-23T17:05:37.204Z,100433.13
2023-03-23T17:08:05.213Z,100432.69
2023-03-23T17:10:33.665Z,100438.41
2023-03-23T17:13:01.870Z,100433.31
2023-03-23T17:15:29.372Z,100443.97
2023-03-23T17:17:56.964Z,100441.69
2023-03-23T17:20:24.778Z,100447.19
2023-03-23T17:22:52.526Z,100436.28
2023-03-23T17:25:20.328Z,100441.91
2023-03-23T17:27:48.070Z,100394.66
2023-03-23T17:30:16.359Z,100441.47
2023-03-23T17:32:43.852Z,100448.28
2023-03-23T17:35:11.658Z,100449.28
2023-03-23T17:37:39.603Z,100448.31
2023-03-23T17:40:10.252Z,100445.16
2023-03-23T17:42:38.143Z,100460.06
2023-03-23T17:45:07.635Z,100465.22
2023-03-23T17:47:35.302Z,100472.97
2023-03-23T17:50:12.267Z,100422.66
2023-03-23T17:52:43.699Z,100461.88
2023-03-23T17:55:11.799Z,100471.31
2023-03-23T17:57:39.394Z,100462.03
2023-03-23T18:00:08.759Z,100458.06
2023-03-23T18:02:37.632Z,100465.00
2023-03-23T18:05:08.209Z,100459.34
2023-03-23T18:07:36.988Z,100467.59
2023-03-23T18:10:11.721Z,100463.16
2023-03-23T18:12:41.573Z,100467.59
2023-03-23T18:15:10.515Z,100415.28
2023-03-23T18:17:38.759Z,100459.00
2023-03-23T18:20:07.859Z,100453.84
2023-03-23T18:22:35.613Z,100453.19
2023-03-23T18:25:05.137Z,100450.22
2023-03-23T18:27:33.964Z,100448.00
2023-03-23T18:30:03.033Z,100413.41
2023-03-23T18:32:37.937Z,100451.16
2023-03-23T18:35:08.400Z,100413.06
2023-03-23T18:37:39.242Z,100460.56
2023-03-23T18:40:11.848Z,100463.53
2023-03-23T18:42:41.406Z,100461.72
2023-03-23T18:45:11.756Z,100472.44
2023-03-23T18:47:39.702Z,100457.84
2023-03-23T18:50:09.372Z,100466.12
2023-03-23T18:52:38.683Z,100472.88
2023-03-23T18:55:06.646Z,100474.31
2023-03-23T18:57:34.426Z,100469.69
2023-03-23T19:00:04.687Z,100476.44
2023-03-23T19:02:32.579Z,100470.63
2023-03-23T19:05:00.606Z,100457.22
2023-03-23T19:07:30.228Z,100409.44
2023-03-23T19:10:06.138Z,100452.03
2023-03-23T19:12:34.267Z,100462.09
2023-03-23T19:15:02.510Z,100468.34
2023-03-23T19:17:30.351Z,100474.25
2023-03-23T19:19:58.477Z,100422.12
2023-03-23T19:22:26.159Z,100422.88
2023-03-23T19:24:53.866Z,100476.19
2023-03-23T19:27:29.890Z,100463.75
2023-03-23T19:29:57.462Z,100469.12
2023-03-23T19:32:25.653Z,100427.75
2023-03-23T19:34:54.368Z,100475.91
2023-03-23T19:37:23.218Z,100431.09
2023-03-23T19:39:51.598Z,100473.81
2023-03-23T19:42:20.412Z,100471.25
2023-03-23T19:44:48.520Z,100475.41
2023-03-23T19:47:17.144Z,100463.78
2023-03-23T19:49:45.096Z,100438.13
2023-03-23T19:52:14.953Z,100438.59
2023-03-23T19:54:44.600Z,100476.47
2023-03-23T19:57:12.483Z,100475.25
2023-03-23T19:59:40.473Z,100477.34
2023-03-23T20:02:11.535Z,100475.13
2023-03-23T20:04:40.531Z,100484.19
2023-03-23T20:07:08.378Z,100487.28
2023-03-23T20:09:38.136Z,100487.56
2023-03-23T20:12:06.789Z,100488.03
2023-03-23T20:14:35.038Z,100475.94
2023-03-23T20:17:05.042Z,100480.53
2023-03-23T20:19:36.595Z,100479.56
2023-03-23T20:22:04.511Z,100485.81
2023-03-23T20:24:31.993Z,100495.81
2023-03-23T20:27:03.111Z,100501.37
2023-03-23T20:29:31.657Z,100475.91
2023-03-23T20:31:59.956Z,100500.03
2023-03-23T20:34:31.495Z,100457.28
2023-03-23T20:37:01.841Z,100500.16
2023-03-23T20:39:31.993Z,100452.31
2023-03-23T20:42:02.932Z,100506.97
2023-03-23T20:44:35.399Z,100455.94
2023-03-23T20:47:03.978Z,100488.06
2023-03-23T20:49:34.781Z,100496.94
2023-03-23T20:52:04.494Z,100500.28
2023-03-23T20:54:32.828Z,100495.88
2023-03-23T20:57:01.110Z,100492.88
2023-03-23T20:59:29.079Z,100499.81
2023-03-23T21:01:57.079Z,100500.22
2023-03-23T21:04:27.386Z,100493.59
2023-03-23T21:06:55.831Z,100502.03
2023-03-23T21:09:25.376Z,100441.00
2023-03-23T21:11:53.813Z,100496.66
2023-03-23T21:14:21.661Z,100495.97
2023-03-23T21:16:50.392Z,100496.09
2023-03-23T21:19:19.582Z,100494.59
2023-03-23T21:21:56.758Z,100488.63
2023-03-23T21:24:30.490Z,100493.50
2023-03-23T21:27:00.582Z,100497.38
2023-03-23T21:29:28.654Z,100447.81
2023-03-23T21:32:05.259Z,100500.56
2023-03-23T21:34:37.289Z,100491.97
2023-03-23T21:37:05.050Z,100495.72
2023-03-23T21:39:33.635Z,100495.16
2023-03-23T21:42:04.332Z,100495.44
2023-03-23T21:44:34.907Z,100447.69
2023-03-23T21:47:03.315Z,100490.88
2023-03-23T21:49:31.533Z,100489.34
2023-03-23T21:51:59.072Z,100492.25
2023-03-23T21:54:30.140Z,100496.12
2023-03-23T21:56:58.759Z,100495.56
2023-03-23T21:59:27.103Z,100489.78
2023-03-23T22:01:58.124Z,100489.47
2023-03-23T22:04:29.176Z,100486.16
2023-03-23T22:06:56.950Z,100487.22
2023-03-23T22:09:24.497Z,100477.81
2023-03-23T22:11:52.551Z,100431.97
2023-03-23T22:14:20.368Z,100476.81
2023-03-23T22:16:47.968Z,100474.72
2023-03-23T22:19:16.131Z,100473.91
2023-03-23T22:21:44.100Z,100471.41
2023-03-23T22:24:11.680Z,100471.69
2023-03-23T22:26:39.990Z,100490.50
2023-03-23T22:29:10.406Z,100473.88
2023-03-23T22:31:39.786Z,100474.03
2023-03-23T22:34:07.607Z,100480.53
2023-03-23T22:36:35.162Z,100483.25
2023-03-23T22:39:04.015Z,100483.56
2023-03-23T22:41:36.862Z,100476.63
2023-03-23T22:44:06.172Z,100480.38
2023-03-23T22:46:33.970Z,100478.56
2023-03-23T22:49:01.964Z,100484.63
2023-03-23T22:51:29.715Z,100479.53
2023-03-23T22:53:57.985Z,100473.84
2023-03-23T22:56:25.761Z,100474.53
2023-03-23T22:58:54.591Z,100475.50
2023-03-23T23:01:23.348Z,100471.22
2023-03-23T23:03:51.711Z,100426.59
2023-03-23T23:06:20.604Z,100463.59
2023-03-23T23:08:49.105Z,100418.28
2023-03-23T23:11:18.572Z,100414.72
2023-03-23T23:13:46.541Z,100449.47
2023-03-23T23:16:17.374Z,100471.34
2023-03-23T23:18:47.665Z,100462.34
2023-03-23T23:21:21.323Z,100466.91
2023-03-23T23:23:51.254Z,100464.19
2023-03-23T23:26:19.900Z,100460.44
2023-03-23T23:28:48.590Z,100410.56
2023-03-23T23:31:26.111Z,100469.69
2023-03-23T23:33:57.227Z,100467.66
2023-03-23T23:36:30.021Z,100469.16
2023-03-23T23:39:00.276Z,100463.66
2023-03-23T23:41:30.016Z,100474.56
2023-03-23T23:43:58.358Z,100473.44
2023-03-23T23:46:26.866Z,100473.69
2023-03-23T23:48:54.474Z,100477.00
2023-03-23T23:51:27.112Z,100468.69
2023-03-23T23:53:58.650Z,100480.69
2023-03-23T23:56:27.726Z,100479.03
2023-03-23T23:58:55.582Z,100485.34
